Time;durP1;ratioP1;P1;durP2;ratioP2;P2;SDS_P1;SDS_P2;PMS_P1;PMS_P2;Temp;Humidity;BMP_temperature;BMP_pressure;BME280_temperature;BME280_humidity;BME280_pressure;Samples;Min_cycle;Max_cycle;Signal;HPM_P1;HPM_P2
2021/01/25 00:00:00;;;;;;;5.13;3.10;;;1.10;99.90;;;-0.77;81.81;99526.38;5018844;28;20456;-40
2021/01/25 00:02:27;;;;;;;7.05;3.53;;;1.10;99.90;;;-0.83;81.87;99519.84;5018558;28;20044;-40
2021/01/25 00:04:54;;;;;;;7.68;2.95;;;1.10;99.90;;;-0.87;82.34;99518.53;5034732;28;20090;-40
2021/01/25 00:07:21;;;;;;;6.88;3.15;;;1.10;99.90;;;-0.74;82.15;99518.84;5051422;28;20503;-40
2021/01/25 00:09:49;;;;;;;6.60;3.13;;;1.10;99.90;;;-0.78;81.59;99514.00;5018879;28;20400;-40
2021/01/25 00:12:16;;;;;;;5.93;2.92;;;1.10;99.90;;;-0.74;81.48;99518.00;5034717;28;20458;-40
2021/01/25 00:14:44;;;;;;;6.65;2.80;;;1.10;99.90;;;-0.78;82.07;99512.16;5034483;28;20037;-40
2021/01/25 00:17:11;;;;;;;6.50;3.00;;;1.10;99.90;;;-0.80;82.42;99510.66;5034620;28;20068;-40
2021/01/25 00:19:39;;;;;;;7.22;3.30;;;1.10;99.90;;;-0.72;81.92;99515.97;5034524;28;20102;-40
2021/01/25 00:22:06;;;;;;;6.30;2.75;;;1.20;99.90;;;-0.74;82.14;99516.16;5018242;28;20041;-40
2021/01/25 00:24:34;;;;;;;5.57;2.72;;;1.10;99.90;;;-0.69;81.09;99521.00;5018212;28;20053;-40
2021/01/25 00:27:01;;;;;;;8.50;3.80;;;1.20;99.90;;;-0.61;81.13;99517.47;5018318;28;20068;-40
2021/01/25 00:29:28;;;;;;;4.47;2.30;;;1.20;99.90;;;-0.55;81.22;99521.31;5034377;28;20049;-40
2021/01/25 00:31:58;;;;;;;;;;;1.30;99.90;;;-0.56;80.95;99515.09;5034520;28;20045;-40
2021/01/25 00:34:26;;;;;;;6.28;2.95;;;1.30;99.90;;;-0.59;81.30;99523.47;5034321;28;19924;-40
2021/01/25 00:36:54;;;;;;;6.88;3.20;;;1.30;99.90;;;-0.54;81.14;99521.13;5017993;28;20139;-40
2021/01/25 00:39:21;;;;;;;5.07;2.60;;;1.30;99.90;;;-0.52;80.66;99513.78;5034165;28;20052;-40
2021/01/25 00:41:48;;;;;;;7.70;2.85;;;1.40;99.90;;;-0.68;81.24;99509.25;5018013;28;20063;-40
2021/01/25 00:44:16;;;;;;;5.60;2.90;;;1.30;99.90;;;-0.57;81.65;99526.00;5017712;28;20131;-40
2021/01/25 00:46:43;;;;;;;;;;;1.30;99.90;;;-0.66;81.05;99509.09;5018201;28;20049;-40
2021/01/25 00:49:11;;;;;;;8.85;3.20;;;1.30;99.90;;;-0.59;81.79;99523.47;5033890;28;19928;-40
2021/01/25 00:51:38;;;;;;;5.97;3.07;;;1.30;99.90;;;-0.61;81.43;99523.66;5017241;28;20158;-40
2021/01/25 00:54:07;;;;;;;9.35;2.95;;;1.30;99.90;;;-0.60;81.97;99522.66;5001679;28;20045;-40
2021/01/25 00:56:35;;;;;;;7.28;3.08;;;1.30;99.90;;;-0.54;82.13;99525.66;5050591;28;20041;-40
2021/01/25 00:59:03;;;;;;;8.68;2.88;;;1.30;99.90;;;-0.57;82.04;99524.13;5034132;28;20041;-40
2021/01/25 01:01:31;;;;;;;6.97;2.90;;;1.30;99.90;;;-0.54;82.10;99520.28;5050297;28;20120;-40
2021/01/25 01:03:58;;;;;;;6.60;2.72;;;1.30;99.90;;;-0.60;81.26;99497.69;5017179;28;20068;-40
2021/01/25 01:06:26;;;;;;;7.65;3.17;;;1.30;99.90;;;-0.52;81.70;99524.47;5017466;28;20048;-40
2021/01/25 01:08:54;;;;;;;;;;;1.40;99.90;;;-0.68;82.40;99497.72;5034699;28;20051;-40
2021/01/25 01:11:21;;;;;;;5.75;2.85;;;1.30;99.90;;;-0.54;81.84;99522.97;5017349;28;20011;-40
2021/01/25 01:13:48;;;;;;;5.80;3.30;;;1.30;99.90;;;-0.47;81.51;99522.13;5000985;28;20094;-40
2021/01/25 01:16:16;;;;;;;5.95;2.60;;;1.40;99.90;;;-0.53;81.85;99514.78;5017408;28;20128;-40
2021/01/25 01:18:44;;;;;;;6.38;2.88;;;1.40;99.90;;;-0.50;81.84;99526.97;5050340;28;20049;-40
2021/01/25 01:21:11;;;;;;;6.43;3.58;;;1.40;99.90;;;-0.55;81.99;99522.13;5049964;28;20057;-40
2021/01/25 01:23:38;;;;;;;5.85;3.10;;;1.30;99.90;;;-0.54;82.25;99529.16;5033609;28;20152;-40
2021/01/25 01:26:06;;;;;;;5.77;3.00;;;1.30;99.90;;;-0.58;82.15;99527.81;4985008;28;20140;-40
2021/01/25 01:28:33;;;;;;;5.43;2.95;;;1.30;99.90;;;-0.54;81.98;99522.97;5033624;28;20390;-40
2021/01/25 01:31:01;;;;;;;5.23;2.83;;;1.30;99.90;;;-0.58;82.35;99506.41;5001221;28;20438;-40
2021/01/25 01:33:28;;;;;;;8.85;3.53;;;1.30;99.90;;;-0.54;81.93;99520.28;5016846;28;20523;-40
2021/01/25 01:35:55;;;;;;;5.27;2.70;;;1.30;99.90;;;-0.58;82.29;99527.81;5001265;28;20530;-40
2021/01/25 01:38:23;;;;;;;7.03;3.22;;;1.30;99.90;;;-0.63;82.23;99524.84;5001287;28;20091;-40
2021/01/25 01:40:51;;;;;;;8.85;3.33;;;1.30;99.90;;;-0.64;82.72;99523.16;5033500;28;20519;-40
2021/01/25 01:43:18;;;;;;;7.80;3.30;;;1.30;99.90;;;-0.63;82.47;99524.84;5017850;28;20060;-40
2021/01/25 01:45:46;;;;;;;6.63;3.17;;;1.20;99.90;;;-0.60;82.53;99522.66;5037573;28;20412;-40
2021/01/25 01:48:14;;;;;;;8.60;3.83;;;1.30;99.90;;;-0.62;82.67;99530.03;5021015;28;20450;-40
2021/01/25 01:50:43;;;;;;;5.65;2.78;;;1.30;99.90;;;-0.60;82.91;99521.81;5037272;28;20048;-40
2021/01/25 01:53:11;;;;;;;6.40;3.60;;;1.30;99.90;;;-0.64;82.56;99523.16;5020795;28;20049;-40
2021/01/25 01:55:39;;;;;;;7.68;3.00;;;1.30;99.90;;;-0.65;83.13;99526.84;5037108;28;20376;-40
2021/01/25 01:58:08;;;;;;;6.78;2.92;;;1.20;99.90;;;-0.68;82.99;99519.16;5037434;28;20045;-40
2021/01/25 02:00:36;;;;;;;7.57;3.05;;;1.20;99.90;;;-0.62;82.95;99530.03;5036929;28;20136;-40
2021/01/25 02:03:05;;;;;;;8.20;3.25;;;1.30;99.90;;;-0.66;82.99;99528.72;5020618;28;20044;-40
2021/01/25 02:05:33;;;;;;;6.57;2.90;;;1.20;99.90;;;-0.63;82.99;99525.69;5036820;28;20047;-40
2021/01/25 02:08:02;;;;;;;7.43;2.78;;;1.30;99.90;;;-0.59;83.06;99529.69;5037211;28;20466;-40
2021/01/25 02:10:31;;;;;;;6.07;3.13;;;1.30;99.90;;;-0.55;82.24;99527.47;5054726;28;20070;-40
2021/01/25 02:13:02;;;;;;;6.75;3.25;;;1.30;99.90;;;-0.60;83.05;99525.34;5053515;28;20053;-40
2021/01/25 02:15:31;;;;;;;6.10;3.00;;;1.30;99.90;;;-0.62;82.74;99531.88;5036602;28;20049;-40
2021/01/25 02:17:59;;;;;;;8.48;3.33;;;1.30;99.90;;;-0.66;83.59;99533.22;5036725;28;20049;-40
2021/01/25 02:20:46;;;;;;;4.95;3.00;;;1.20;99.90;;;-0.65;82.91;99526.84;5020535;28;20116;-40
2021/01/25 02:23:24;;;;;;;7.15;2.85;;;1.20;99.90;;;-0.62;82.91;99526.50;5053337;28;20049;-40
2021/01/25 02:26:11;;;;;;;6.80;3.47;;;1.30;99.90;;;-0.69;83.51;99529.03;5038470;28;20514;-40
2021/01/25 02:28:41;;;;;;;5.63;3.00;;;1.20;99.90;;;-0.70;83.69;99540.75;5036678;28;20053;-40
2021/01/25 02:31:12;;;;;;;7.15;3.38;;;1.20;99.90;;;-0.67;83.84;99536.91;5053106;28;20045;-40
2021/01/25 02:33:54;;;;;;;5.95;2.92;;;1.20;99.90;;;-0.60;83.29;99535.19;5052839;28;20037;-40
2021/01/25 02:36:24;;;;;;;9.18;2.90;;;1.30;99.90;;;-0.65;83.81;99533.06;5020056;28;20066;-40
2021/01/25 02:38:55;;;;;;;5.45;3.05;;;1.30;99.90;;;-0.69;83.93;99537.06;5036484;28;20037;-40
2021/01/25 02:41:27;;;;;;;7.53;2.88;;;1.20;99.90;;;-0.67;83.62;99534.22;5020438;28;20049;-40
2021/01/25 02:43:59;;;;;;;7.50;2.70;;;1.20;99.90;;;-0.64;83.60;99539.25;5036138;28;20408;-40
2021/01/25 02:46:30;;;;;;;5.65;2.60;;;1.20;99.90;;;-0.59;83.57;99540.41;5020380;28;20044;-40
2021/01/25 02:48:58;;;;;;;6.93;2.95;;;1.30;99.90;;;-0.60;83.50;99537.88;5052798;28;20430;-40
2021/01/25 02:51:26;;;;;;;;;;;1.30;99.90;;;-0.66;84.13;99538.56;5004061;28;20132;-40
2021/01/25 02:53:54;;;;;;;7.38;2.90;;;1.20;99.90;;;-0.57;83.66;99529.50;5035509;28;19921;-40
2021/01/25 02:56:23;;;;;;;4.97;3.05;;;1.30;99.90;;;-0.52;83.41;99529.00;5020025;28;20037;-40
2021/01/25 02:58:52;;;;;;;5.75;2.63;;;1.30;99.90;;;-0.61;83.37;99534.38;5036130;28;20045;-40
2021/01/25 03:01:21;;;;;;;6.25;2.78;;;1.30;99.90;;;-0.57;83.82;99536.72;5052413;28;20108;-40
2021/01/25 03:03:52;;;;;;;7.50;2.95;;;1.30;99.90;;;-0.57;82.87;99536.72;5003269;28;20057;-40
2021/01/25 03:06:21;;;;;;;5.25;2.50;;;1.30;99.90;;;-0.53;83.22;99535.38;5052953;28;20055;-40
2021/01/25 03:08:48;;;;;;;4.80;2.60;;;1.30;99.90;;;-0.57;83.22;99544.75;5020067;28;20079;-40
2021/01/25 03:11:19;;;;;;;6.43;2.67;;;1.30;99.90;;;-0.60;83.14;99546.78;5003753;28;20041;-40
2021/01/25 03:13:47;;;;;;;5.78;2.75;;;1.30;99.90;;;-0.62;83.46;99545.25;5035856;28;20082;-40
2021/01/25 03:16:17;;;;;;;6.18;2.80;;;1.30;99.90;;;-0.67;83.71;99543.09;5035814;28;20095;-40
2021/01/25 03:18:45;;;;;;;6.88;2.80;;;1.20;99.90;;;-0.68;83.75;99540.59;5036772;28;20041;-40
2021/01/25 03:21:12;;;;;;;5.18;2.88;;;1.20;99.90;;;-0.75;83.64;99549.31;5019042;28;20037;-40
2021/01/25 03:23:40;;;;;;;7.20;2.67;;;1.20;99.90;;;-0.76;83.98;99553.00;5019218;28;20040;-40
2021/01/25 03:26:07;;;;;;;4.72;2.30;;;1.10;99.90;;;-0.81;84.09;99549.97;5019060;28;20419;-40
2021/01/25 03:28:35;;;;;;;4.93;2.22;;;1.10;99.90;;;-0.77;84.00;99551.34;5003231;28;20124;-40
2021/01/25 03:31:03;;;;;;;3.95;2.20;;;1.10;99.90;;;-0.83;84.08;99546.63;5051928;28;20416;-40
2021/01/25 03:33:30;;;;;;;4.30;2.40;;;1.10;99.90;;;-0.85;84.07;99553.19;5002985;28;20431;-40
2021/01/25 03:35:58;;;;;;;5.53;2.63;;;1.10;99.90;;;-0.88;84.19;99555.19;5002780;28;20041;-40
2021/01/25 03:38:26;;;;;;;5.28;1.80;;;1.00;99.90;;;-0.92;84.07;99555.69;5002957;28;20060;-40
2021/01/25 03:40:53;;;;;;;5.13;2.53;;;1.00;99.90;;;-0.93;83.86;99562.06;5019071;28;20530;-40
2021/01/25 03:43:20;;;;;;;5.53;2.13;;;1.00;99.90;;;-0.95;84.73;99554.16;5018850;28;20040;-40
2021/01/25 03:45:48;;;;;;;4.22;2.38;;;1.00;99.90;;;-1.00;84.57;99564.56;4986592;28;20666;-40
2021/01/25 03:48:15;;;;;;;5.90;2.70;;;0.90;99.90;;;-0.97;84.57;99566.06;5035172;28;20056;-40
2021/01/25 03:50:43;;;;;;;6.10;2.60;;;0.90;99.90;;;-1.03;83.87;99568.44;5018975;28;20120;-40
2021/01/25 03:53:11;;;;;;;4.33;2.30;;;0.90;99.90;;;-1.06;84.44;99574.13;5018106;28;20037;-40
2021/01/25 03:55:39;;;;;;;5.47;2.60;;;0.80;99.90;;;-0.98;84.23;99570.56;5067936;28;20492;-40
2021/01/25 03:58:07;;;;;;;4.32;2.40;;;0.90;99.90;;;-1.03;84.95;99579.13;4986456;28;20106;-40
2021/01/25 04:00:34;;;;;;;5.93;2.38;;;0.90;99.90;;;-1.07;84.90;99569.72;5018810;28;20124;-40
2021/01/25 04:03:02;;;;;;;5.85;2.60;;;0.90;99.90;;;-1.11;84.33;99579.13;5002334;28;20132;-40
2021/01/25 04:05:30;;;;;;;4.53;2.75;;;0.80;99.90;;;-1.17;84.51;99585.13;5018340;28;20131;-40
2021/01/25 04:07:57;;;;;;;5.80;2.60;;;0.80;99.90;;;-1.18;85.26;99586.16;5002188;28;20053;-40
2021/01/25 04:10:24;;;;;;;5.90;2.63;;;0.70;99.90;;;-1.20;86.00;99590.81;5018620;28;20069;-40
2021/01/25 04:12:52;;;;;;;5.93;2.70;;;0.70;99.90;;;-1.25;86.20;99582.47;5018578;28;20493;-40
2021/01/25 04:15:20;;;;;;;5.55;2.53;;;0.70;99.90;;;-1.40;85.83;99567.03;5017953;28;20119;-40
2021/01/25 04:17:47;;;;;;;3.92;2.42;;;0.70;99.90;;;-1.26;85.71;99588.81;5034774;28;20041;-41
2021/01/25 04:20:15;;;;;;;4.43;2.43;;;0.70;99.90;;;-1.27;86.47;99587.16;5018214;28;20071;-40
2021/01/25 04:22:42;;;;;;;6.43;2.40;;;0.70;99.90;;;-1.22;86.54;99595.50;5018098;28;20049;-40
2021/01/25 04:25:10;;;;;;;4.75;2.30;;;0.70;99.90;;;-1.21;86.13;99592.66;5034446;28;20051;-40
2021/01/25 04:27:38;;;;;;;5.22;2.70;;;0.70;99.90;;;-1.17;85.84;99596.69;5034397;28;20523;-40
2021/01/25 04:30:09;;;;;;;5.57;2.72;;;0.70;99.90;;;-1.18;86.57;99599.53;5017963;28;20052;-40
2021/01/25 04:32:39;;;;;;;5.38;2.85;;;0.70;99.90;;;-1.18;86.64;99595.03;5050902;28;20452;-40
2021/01/25 04:35:16;;;;;;;4.03;2.33;;;0.70;99.90;;;-1.14;85.90;99605.41;5034082;28;20040;-40
2021/01/25 04:37:44;;;;;;;7.13;2.60;;;0.80;99.90;;;-1.21;85.98;99595.31;5052292;28;20049;-40
2021/01/25 04:40:13;;;;;;;5.53;3.05;;;0.70;99.90;;;-1.07;86.74;99606.41;5001733;28;20095;-40
2021/01/25 04:42:41;;;;;;;5.88;2.78;;;0.80;99.90;;;-1.06;86.23;99602.72;5034446;28;20418;-40
2021/01/25 04:45:12;;;;;;;5.78;2.85;;;0.80;99.90;;;-1.10;86.98;99607.56;5050257;28;20462;-40
2021/01/25 04:47:47;;;;;;;7.55;3.10;;;0.80;99.90;;;-1.11;86.93;99605.06;5050604;28;20423;-40
2021/01/25 04:50:17;;;;;;;6.57;3.10;;;0.80;99.90;;;-1.09;86.58;99613.75;5018874;28;20048;-40
2021/01/25 04:52:47;;;;;;;7.07;2.88;;;0.80;99.90;;;-1.10;87.17;99615.59;5051366;28;20048;-40
2021/01/25 04:55:25;;;;;;;5.22;2.75;;;0.80;99.90;;;-1.04;87.21;99617.63;5017477;28;20143;-40
2021/01/25 04:57:55;;;;;;;6.68;3.03;;;0.80;99.90;;;-1.07;87.58;99622.47;5034055;28;20037;-40
2021/01/25 05:00:23;;;;;;;4.97;2.83;;;0.80;99.90;;;-1.05;87.09;99620.44;5050698;28;20045;-40
2021/01/25 05:02:50;;;;;;;6.45;3.15;;;0.80;99.90;;;-1.02;86.77;99620.13;5034110;28;20103;-40
2021/01/25 05:05:17;;;;;;;5.90;2.90;;;0.80;99.90;;;-1.03;86.89;99627.34;5017600;28;20048;-40
2021/01/25 05:07:44;;;;;;;6.95;3.28;;;0.90;99.90;;;-1.05;87.47;99623.97;5017601;28;20052;-40
2021/01/25 05:10:12;;;;;;;6.05;3.40;;;0.80;99.90;;;-1.07;87.26;99627.81;5001471;28;20064;-40
2021/01/25 05:12:51;;;;;;;6.25;3.28;;;0.80;99.90;;;-1.07;88.03;99641.19;5033809;28;20037;-40
2021/01/25 05:15:31;;;;;;;6.05;2.80;;;0.80;99.90;;;-1.02;87.78;99642.38;5049985;28;20125;-40
2021/01/25 05:18:06;;;;;;;6.03;3.05;;;0.90;99.90;;;-1.06;88.07;99649.09;5033753;28;20044;-40
2021/01/25 05:20:34;;;;;;;6.85;3.03;;;0.80;99.90;;;-1.07;87.54;99646.56;5051527;28;20052;-40
2021/01/25 05:23:13;;;;;;;;;;;0.80;99.90;;;-1.10;87.63;99647.72;5052114;28;20045;-40
2021/01/25 05:25:41;;;;;;;8.60;3.20;;;0.80;99.90;;;-1.11;87.99;99647.91;5050250;28;19978;-40
2021/01/25 05:28:20;;;;;;;6.63;3.28;;;0.80;99.90;;;-1.09;88.22;99652.06;5033655;28;20550;-40
2021/01/25 05:30:48;;;;;;;6.70;3.20;;;0.80;99.90;;;-1.24;88.27;99645.69;5050530;28;20512;-40
2021/01/25 05:33:27;;;;;;;7.05;3.30;;;0.80;99.90;;;-1.12;87.78;99654.25;5016984;28;20095;-40
2021/01/25 05:35:56;;;;;;;7.47;3.53;;;0.80;99.90;;;-1.15;88.63;99655.41;5066748;28;20057;-40
2021/01/25 05:38:23;;;;;;;6.85;3.47;;;0.70;99.90;;;-1.17;88.32;99663.63;5049921;28;20094;-40
2021/01/25 05:40:56;;;;;;;5.90;3.47;;;0.80;99.90;;;-1.13;88.59;99664.09;5017148;28;20158;-40
2021/01/25 05:43:34;;;;;;;7.78;3.90;;;0.80;99.90;;;-1.10;88.48;99669.13;5049725;28;20446;-40
2021/01/25 05:46:13;;;;;;;7.60;3.90;;;0.80;99.90;;;-1.09;88.90;99665.44;5034150;28;20519;-40
2021/01/25 05:48:42;;;;;;;8.05;4.20;;;0.80;99.90;;;-1.07;88.77;99663.44;5050100;28;20053;-40
2021/01/25 05:51:19;;;;;;;8.23;4.32;;;0.80;99.90;;;-1.05;88.87;99668.66;5050567;28;20280;-40
2021/01/25 05:53:48;;;;;;;6.90;3.70;;;0.80;99.90;;;-0.97;88.52;99667.81;5016737;28;20443;-40
2021/01/25 05:56:17;;;;;;;7.57;3.92;;;0.90;99.90;;;-1.01;88.84;99670.00;5051213;28;20051;-40
2021/01/25 05:58:44;;;;;;;9.15;4.53;;;0.80;99.90;;;-0.99;88.74;99683.22;5049851;28;20074;-40
2021/01/25 06:01:13;;;;;;;8.23;3.50;;;0.90;99.90;;;-1.02;89.13;99684.38;5033228;28;20052;-40
2021/01/25 06:03:40;;;;;;;6.93;3.53;;;0.90;99.90;;;-1.03;88.88;99682.69;5050752;28;20562;-40
2021/01/25 06:06:12;;;;;;;6.00;3.40;;;0.90;99.90;;;-1.05;89.15;99684.72;5049786;28;20511;-40
2021/01/25 06:09:00;;;;;;;6.68;3.65;;;0.90;99.90;;;-1.02;88.83;99693.25;5033885;28;20068;-40
2021/01/25 06:11:32;;;;;;;6.63;3.42;;;0.80;99.90;;;-1.01;89.03;99696.75;5033559;28;20052;-40
2021/01/25 06:14:12;;;;;;;7.97;4.20;;;0.90;99.90;;;-1.02;89.45;99705.81;5033110;28;20049;-40
2021/01/25 06:16:46;;;;;;;8.25;4.18;;;0.80;99.90;;;-1.01;89.54;99699.44;5051631;28;20069;-40
2021/01/25 06:19:19;;;;;;;5.88;3.50;;;0.90;99.90;;;-1.05;88.97;99706.13;5049607;28;20239;-40
2021/01/25 06:21:48;;;;;;;4.65;2.92;;;0.80;99.90;;;-1.04;89.54;99708.66;5050766;28;20111;-40
2021/01/25 06:24:20;;;;;;;8.15;3.58;;;0.80;99.90;;;-1.00;89.39;99711.00;5049344;28;20045;-40
2021/01/25 06:26:49;;;;;;;7.30;3.40;;;0.90;99.90;;;-1.02;89.85;99719.19;5049602;28;20049;-40
2021/01/25 06:29:19;;;;;;;8.52;3.50;;;0.90;99.90;;;-1.01;89.10;99718.19;5050336;28;20068;-40
2021/01/25 06:31:59;;;;;;;6.70;3.78;;;0.90;99.90;;;-0.98;89.80;99730.41;5069751;28;20045;-40
2021/01/25 06:34:28;;;;;;;7.50;3.95;;;0.90;99.90;;;-0.99;89.08;99723.38;5052840;28;20041;-40
2021/01/25 06:36:55;;;;;;;8.82;3.70;;;0.90;99.90;;;-0.96;89.06;99728.41;5053036;28;20045;-40
2021/01/25 06:39:27;;;;;;;7.18;3.88;;;0.90;99.90;;;-0.93;89.01;99736.97;5020209;28;20094;-40
2021/01/25 06:42:06;;;;;;;6.63;3.53;;;0.90;99.90;;;-0.93;89.46;99741.47;5052844;28;20045;-40
2021/01/25 06:44:35;;;;;;;6.10;3.40;;;1.00;99.90;;;-0.85;89.22;99748.69;5069365;28;20073;-40
2021/01/25 06:47:04;;;;;;;8.98;4.10;;;1.00;99.90;;;-0.86;89.32;99747.84;5054074;28;20120;-40
2021/01/25 06:49:33;;;;;;;8.02;4.10;;;1.00;99.90;;;-0.89;89.86;99743.66;5020043;28;20056;-40
2021/01/25 06:52:00;;;;;;;8.23;3.83;;;1.00;99.90;;;-0.90;89.49;99751.84;5020098;28;20037;-40
2021/01/25 06:54:28;;;;;;;6.65;3.70;;;1.00;99.90;;;-0.95;90.03;99748.84;5052518;28;20130;-40
2021/01/25 06:56:59;;;;;;;6.83;3.90;;;0.90;99.90;;;-0.95;90.01;99762.22;5036576;28;20511;-40
2021/01/25 06:59:30;;;;;;;7.88;4.15;;;0.90;99.90;;;-0.94;90.33;99763.91;5069249;28;20533;-40
2021/01/25 07:01:59;;;;;;;9.10;4.20;;;0.90;99.90;;;-0.99;90.55;99768.91;5052518;28;20056;-40
2021/01/25 07:04:30;;;;;;;9.10;3.92;;;0.90;99.90;;;-1.02;90.75;99776.28;5052449;28;20056;-40
2021/01/25 07:06:59;;;;;;;9.95;4.25;;;0.90;99.90;;;-1.03;90.70;99781.78;5052456;28;20048;-40
2021/01/25 07:09:30;;;;;;;9.38;4.22;;;0.90;99.90;;;-1.09;90.50;99793.97;5069045;28;20510;-40
2021/01/25 07:12:01;;;;;;;9.00;3.78;;;0.80;99.90;;;-1.12;90.86;99804.19;5052364;28;20052;-40
2021/01/25 07:14:32;;;;;;;11.27;4.47;;;0.80;99.90;;;-1.11;91.30;99808.53;5035533;28;20037;-40
2021/01/25 07:17:00;;;;;;;8.23;4.38;;;0.80;99.90;;;-1.14;91.91;99806.19;5052773;28;20041;-40
2021/01/25 07:19:29;;;;;;;9.13;4.40;;;0.80;99.90;;;-1.17;92.11;99810.00;5053428;28;20047;-40
2021/01/25 07:21:56;;;;;;;9.77;4.30;;;0.80;99.90;;;-1.17;91.85;99815.34;5035665;28;20041;-40
2021/01/25 07:24:26;;;;;;;8.15;4.50;;;0.80;99.90;;;-1.16;91.75;99817.88;5051880;28;20174;-40
2021/01/25 07:26:59;;;;;;;9.13;4.40;;;0.80;99.90;;;-1.18;91.94;99824.38;5053763;28;20048;-41
2021/01/25 07:29:28;;;;;;;8.52;4.38;;;0.70;99.90;;;-1.32;91.96;99812.44;5052067;28;20045;-40
2021/01/25 07:31:58;;;;;;;8.27;4.15;;;0.70;99.90;;;-1.21;92.33;99824.72;5053316;28;20047;-40
2021/01/25 07:37:04;;;;;;;6.95;3.88;;;0.80;99.90;;;-1.16;91.73;99838.44;5037062;28;20396;-40
2021/01/25 07:39:31;;;;;;;7.78;4.40;;;0.80;99.90;;;-1.16;92.20;99839.31;5051974;28;20415;-40
2021/01/25 07:41:59;;;;;;;8.65;4.50;;;0.80;99.90;;;-1.13;92.43;99850.69;5050949;28;20060;-40
2021/01/25 07:44:29;;;;;;;10.80;4.60;;;0.80;99.90;;;-1.11;92.52;99852.19;5051522;28;20037;-40
2021/01/25 07:47:04;;;;;;;8.70;4.65;;;0.80;99.90;;;-1.13;91.87;99854.19;5051721;28;20106;-41
2021/01/25 07:49:31;;;;;;;8.13;4.35;;;0.80;99.90;;;-1.06;92.01;99868.63;5035520;28;20136;-40
2021/01/25 07:51:59;;;;;;;8.63;4.53;;;0.80;99.90;;;-1.00;92.22;99869.00;5051391;28;20425;-40
2021/01/25 07:54:30;;;;;;;8.70;4.43;;;0.80;99.90;;;-0.98;92.66;99875.84;5051348;28;20040;-40
2021/01/25 07:56:59;;;;;;;8.75;4.65;;;0.90;99.90;;;-0.94;92.50;99876.38;5068242;28;20044;-40
2021/01/25 07:59:36;;;;;;;9.15;4.80;;;0.90;99.90;;;-0.93;92.05;99883.41;5052933;28;20454;-40
2021/01/25 08:02:15;;;;;;;10.35;5.13;;;0.90;99.90;;;-0.88;91.82;99881.94;5051401;28;20045;-40
2021/01/25 08:04:45;;;;;;;8.25;4.10;;;1.00;99.90;;;-0.81;91.86;99882.09;5052413;28;20530;-40
2021/01/25 08:07:16;;;;;;;10.50;5.18;;;1.00;99.90;;;-0.80;90.96;99897.19;5052673;28;20052;-40
2021/01/25 08:09:44;;;;;;;9.65;5.35;;;1.00;99.90;;;-0.92;91.53;99875.22;5052415;28;20094;-40
2021/01/25 08:12:15;;;;;;;9.68;5.25;;;1.00;99.90;;;-0.76;90.97;99893.19;5051456;28;20384;-40
2021/01/25 08:14:59;;;;;;;9.45;4.82;;;1.10;99.90;;;-0.74;91.56;99898.38;5050936;28;20559;-40
2021/01/25 08:17:36;;;;;;;8.98;4.72;;;1.10;99.90;;;-0.67;90.88;99895.91;5052575;28;20091;-40
2021/01/25 08:20:12;;;;;;;10.00;4.35;;;1.10;99.90;;;-0.61;90.55;99898.78;5052320;28;20056;-40
2021/01/25 08:22:51;;;;;;;11.35;5.13;;;1.20;99.90;;;-0.55;90.54;99905.31;5051028;28;20056;-40
2021/01/25 08:25:23;;;;;;;12.20;5.32;;;1.20;99.90;;;-0.51;89.35;99908.50;5052091;28;20052;-40
2021/01/25 08:28:11;;;;;;;8.77;4.15;;;1.30;99.90;;;-0.50;89.28;99908.38;5052314;28;20055;-40
2021/01/25 08:30:43;;;;;;;8.15;4.50;;;1.30;99.90;;;-0.47;88.81;99916.06;5050858;28;20053;-40
2021/01/25 08:33:26;;;;;;;12.77;5.18;;;1.30;99.90;;;-0.46;89.17;99927.63;5034608;28;20041;-40
2021/01/25 08:35:59;;;;;;;8.00;4.47;;;1.30;99.90;;;-0.44;88.42;99930.97;5051053;28;20043;-40
2021/01/25 08:38:41;;;;;;;10.50;4.95;;;1.40;99.90;;;-0.43;88.68;99932.66;5052067;28;20045;-40
2021/01/25 08:41:32;;;;;;;8.85;4.55;;;1.40;99.90;;;-0.46;88.87;99944.56;5050677;28;20076;-40
2021/01/25 08:44:11;;;;;;;9.88;4.97;;;1.30;99.90;;;-0.40;88.67;99952.94;5067074;28;20045;-40
2021/01/25 08:46:42;;;;;;;12.10;4.63;;;1.40;99.90;;;-0.36;87.81;99957.81;5051947;28;20427;-41
2021/01/25 08:49:17;;;;;;;10.57;5.50;;;1.40;99.90;;;-0.31;87.88;99955.50;5051752;28;20057;-40
2021/01/25 08:52:05;;;;;;;9.18;4.90;;;1.50;99.90;;;-0.33;87.49;99965.53;5066735;28;20126;-41
2021/01/25 08:54:38;;;;;;;11.63;5.32;;;1.50;99.90;;;-0.30;87.21;99967.03;5050306;28;20045;-40
2021/01/25 08:57:19;;;;;;;8.38;4.80;;;1.50;99.90;;;-0.30;87.67;99969.72;5034175;28;20128;-40
2021/01/25 08:59:47;;;;;;;10.10;4.93;;;1.50;99.90;;;-0.28;87.53;99974.94;5051948;28;20065;-40
2021/01/25 09:02:23;;;;;;;10.43;5.20;;;1.50;99.90;;;-0.23;87.69;99983.31;5050622;28;20045;-40
2021/01/25 09:04:53;;;;;;;11.23;5.68;;;1.50;99.90;;;-0.17;87.17;99983.53;5050198;28;20499;-40
2021/01/25 09:07:24;;;;;;;9.98;5.03;;;1.60;99.90;;;-0.07;86.78;99987.91;5051591;28;20056;-40
2021/01/25 09:09:53;;;;;;;13.32;5.63;;;1.70;99.90;;;-0.02;86.66;99988.22;5051744;28;20076;-40
2021/01/25 09:12:20;;;;;;;10.70;4.97;;;1.70;99.90;;;0.03;86.47;99985.94;5051661;28;20041;-40
2021/01/25 09:14:48;;;;;;;10.52;5.50;;;1.80;99.90;;;0.10;86.20;99995.00;5050210;28;20066;-40
2021/01/25 09:17:16;;;;;;;11.45;5.32;;;1.80;99.90;;;-0.05;86.16;99983.19;5033848;28;20103;-40
2021/01/25 09:19:43;;;;;;;9.98;5.43;;;1.80;99.90;;;0.12;85.84;100005.53;5033809;28;20534;-40
2021/01/25 09:22:12;;;;;;;12.77;5.72;;;1.90;99.90;;;0.14;85.35;100012.44;5033473;28;20045;-40
2021/01/25 09:24:41;;;;;;;10.55;5.20;;;1.90;99.90;;;0.20;85.07;100010.09;5051348;28;20119;-40
2021/01/25 09:27:10;;;;;;;12.40;5.15;;;1.90;99.90;;;0.24;85.46;100014.13;5066865;28;20092;-40
2021/01/25 09:29:38;;;;;;;9.13;5.13;;;1.90;99.90;;;0.31;85.32;100017.84;5033534;28;20033;-40
2021/01/25 09:32:06;;;;;;;10.18;5.65;;;2.00;99.90;;;0.39;85.27;100023.22;5050194;28;20049;-40
2021/01/25 09:34:34;;;;;;;12.05;5.88;;;2.00;99.90;;;0.50;85.16;100034.63;5049732;28;20526;-40
2021/01/25 09:37:03;;;;;;;12.87;6.20;;;2.10;99.90;;;0.63;85.50;100029.63;5050373;28;20499;-40
2021/01/25 09:39:30;;;;;;;10.07;5.55;;;2.20;99.90;;;0.76;85.32;100039.00;5051281;28;20029;-41
2021/01/25 09:41:57;;;;;;;13.48;6.20;;;2.30;99.90;;;0.84;84.33;100036.34;5049976;28;20511;-40
2021/01/25 09:44:25;;;;;;;10.00;6.00;;;2.40;99.90;;;0.95;83.65;100033.31;5049874;28;20049;-40
2021/01/25 09:46:52;;;;;;;11.70;5.95;;;2.50;99.90;;;0.99;82.88;100034.63;5050017;28;20567;-40
2021/01/25 09:49:20;;;;;;;13.75;5.32;;;2.60;99.90;;;1.03;82.53;100039.66;5049945;28;20457;-40
2021/01/25 09:51:47;;;;;;;11.85;6.20;;;2.70;99.90;;;0.96;81.41;100048.41;5050989;28;20462;-41
2021/01/25 09:54:16;;;;;;;12.93;6.50;;;2.70;99.90;;;0.92;81.12;100046.22;5049808;28;20044;-40
2021/01/25 09:56:44;;;;;;;11.48;6.22;;;2.60;99.90;;;0.93;81.58;100056.81;5033535;28;20132;-40
2021/01/25 09:59:11;;;;;;;9.70;5.63;;;2.70;99.90;;;0.87;81.47;100062.84;5051057;28;20132;-40
2021/01/25 10:01:38;;;;;;;11.02;5.78;;;2.60;99.90;;;0.87;81.76;100068.22;5049796;28;20041;-40
2021/01/25 10:04:05;;;;;;;10.37;5.67;;;2.60;99.90;;;0.84;82.19;100073.94;5033460;28;20525;-40
2021/01/25 10:06:32;;;;;;;11.07;5.88;;;2.60;99.90;;;0.82;82.33;100084.84;5037495;28;20045;-40
2021/01/25 10:08:59;;;;;;;11.73;6.07;;;2.50;99.90;;;0.83;81.77;100088.38;5053606;28;20558;-40
2021/01/25 10:11:29;;;;;;;11.60;6.72;;;2.60;99.90;;;0.86;81.89;100104.16;5053451;28;20045;-40
2021/01/25 10:13:56;;;;;;;11.68;6.68;;;2.60;99.90;;;0.92;82.21;100102.63;5036805;28;20127;-41
2021/01/25 10:16:23;;;;;;;11.10;6.75;;;2.50;99.90;;;0.95;81.88;100097.78;5037208;28;20041;-40
2021/01/25 10:18:51;;;;;;;12.83;6.03;;;2.60;99.90;;;1.02;82.14;100103.31;5053649;28;20119;-40
2021/01/25 10:21:19;;;;;;;12.52;6.03;;;2.60;99.90;;;1.20;81.45;100103.16;5054483;28;20045;-40
2021/01/25 10:23:48;;;;;;;;;;;2.70;99.90;;;1.25;80.13;100098.09;5054926;28;20102;-40
2021/01/25 10:26:20;;;;;;;10.40;6.35;;;2.80;99.90;;;1.29;80.29;100109.34;5054466;28;19927;-40
2021/01/25 10:28:49;;;;;;;11.52;6.22;;;2.90;99.90;;;1.31;80.07;100107.34;5054493;28;20504;-40
2021/01/25 10:31:17;;;;;;;10.50;6.07;;;2.90;99.90;;;1.31;80.71;100112.72;5054555;28;20040;-41
2021/01/25 10:33:44;;;;;;;;;;;2.90;99.90;;;1.25;80.23;100122.28;5053393;28;20125;-40
2021/01/25 10:36:13;;;;;;;12.07;6.97;;;2.90;99.90;;;1.20;78.92;100121.13;5054561;28;20011;-41
2021/01/25 10:38:40;;;;;;;11.32;5.93;;;2.90;99.90;;;1.23;79.61;100127.00;5052990;28;20047;-40